sensor_id;sensor_type;location;lat;lon;timestamp;P1;durP1;ratioP1;P2;durP2;ratioP2
80957;SDS011;70419;42.700;23.316;2023-09-19T00:01:39;8.52;;;4.05;;
80957;SDS011;70419;42.700;23.316;2023-09-19T00:04:06;7.53;;;4.13;;
80957;SDS011;70419;42.700;23.316;2023-09-19T00:06:34;9.73;;;4.07;;
80957;SDS011;70419;42.700;23.316;2023-09-19T00:09:04;8.13;;;4.45;;
80957;SDS011;70419;42.700;23.316;2023-09-19T00:11:30;9.63;;;4.68;;
80957;SDS011;70419;42.700;23.316;2023-09-19T00:13:56;8.65;;;4.47;;
80957;SDS011;70419;42.700;23.316;2023-09-19T00:16:24;7.28;;;3.83;;
80957;SDS011;70419;42.700;23.316;2023-09-19T00:18:51;9.77;;;4.50;;
80957;SDS011;70419;42.700;23.316;2023-09-19T00:21:17;7.25;;;4.90;;
80957;SDS011;70419;42.700;23.316;2023-09-19T00:23:44;7.78;;;3.50;;
80957;SDS011;70419;42.700;23.316;2023-09-19T00:26:10;8.15;;;4.18;;
80957;SDS011;70419;42.700;23.316;2023-09-19T00:28:36;10.05;;;3.83;;
80957;SDS011;70419;42.700;23.316;2023-09-19T00:31:01;6.63;;;4.20;;
80957;SDS011;70419;42.700;23.316;2023-09-19T00:33:28;6.80;;;4.03;;
80957;SDS011;70419;42.700;23.316;2023-09-19T00:35:54;10.07;;;4.43;;
80957;SDS011;70419;42.700;23.316;2023-09-19T00:38:23;7.68;;;4.35;;
80957;SDS011;70419;42.700;23.316;2023-09-19T00:40:52;10.27;;;4.47;;
80957;SDS011;70419;42.700;23.316;2023-09-19T00:43:18;7.68;;;4.40;;
80957;SDS011;70419;42.700;23.316;2023-09-19T00:45:45;9.82;;;4.68;;
80957;SDS011;70419;42.700;23.316;2023-09-19T00:48:16;8.95;;;3.75;;
80957;SDS011;70419;42.700;23.316;2023-09-19T00:50:43;9.35;;;4.05;;
80957;SDS011;70419;42.700;23.316;2023-09-19T00:53:13;9.73;;;4.60;;
80957;SDS011;70419;42.700;23.316;2023-09-19T00:55:43;8.82;;;4.10;;
80957;SDS011;70419;42.700;23.316;2023-09-19T00:58:10;10.30;;;4.75;;
80957;SDS011;70419;42.700;23.316;2023-09-19T01:00:36;7.60;;;4.28;;
80957;SDS011;70419;42.700;23.316;2023-09-19T01:03:03;8.95;;;4.40;;
80957;SDS011;70419;42.700;23.316;2023-09-19T01:05:31;9.07;;;4.57;;
80957;SDS011;70419;42.700;23.316;2023-09-19T01:07:58;11.00;;;4.80;;
80957;SDS011;70419;42.700;23.316;2023-09-19T01:10:24;8.68;;;4.40;;
80957;SDS011;70419;42.700;23.316;2023-09-19T01:18:11;9.15;;;5.15;;
80957;SDS011;70419;42.700;23.316;2023-09-19T01:31:59;9.90;;;4.63;;
80957;SDS011;70419;42.700;23.316;2023-09-19T01:34:48;9.88;;;5.28;;
80957;SDS011;70419;42.700;23.316;2023-09-19T01:37:19;9.40;;;5.20;;
80957;SDS011;70419;42.700;23.316;2023-09-19T01:39:50;11.18;;;5.30;;
80957;SDS011;70419;42.700;23.316;2023-09-19T01:51:00;9.20;;;6.05;;
80957;SDS011;70419;42.700;23.316;2023-09-19T01:53:30;9.05;;;5.25;;
80957;SDS011;70419;42.700;23.316;2023-09-19T01:56:00;9.50;;;5.28;;
80957;SDS011;70419;42.700;23.316;2023-09-19T02:01:04;11.40;;;5.53;;
80957;SDS011;70419;42.700;23.316;2023-09-19T02:03:33;10.32;;;5.35;;
80957;SDS011;70419;42.700;23.316;2023-09-19T02:06:00;9.63;;;5.40;;
80957;SDS011;70419;42.700;23.316;2023-09-19T02:08:26;8.70;;;5.35;;
80957;SDS011;70419;42.700;23.316;2023-09-19T02:10:52;9.55;;;5.63;;
80957;SDS011;70419;42.700;23.316;2023-09-19T02:13:21;10.18;;;5.22;;
80957;SDS011;70419;42.700;23.316;2023-09-19T02:15:53;10.65;;;5.70;;
80957;SDS011;70419;42.700;23.316;2023-09-19T02:18:19;9.98;;;5.70;;
80957;SDS011;70419;42.700;23.316;2023-09-19T02:20:45;15.02;;;5.35;;
80957;SDS011;70419;42.700;23.316;2023-09-19T02:23:11;9.52;;;6.00;;
80957;SDS011;70419;42.700;23.316;2023-09-19T02:25:38;10.38;;;5.80;;
80957;SDS011;70419;42.700;23.316;2023-09-19T02:28:05;9.43;;;5.70;;
80957;SDS011;70419;42.700;23.316;2023-09-19T02:30:31;10.10;;;5.40;;
80957;SDS011;70419;42.700;23.316;2023-09-19T02:32:58;13.27;;;5.57;;
80957;SDS011;70419;42.700;23.316;2023-09-19T02:35:27;10.70;;;5.75;;
80957;SDS011;70419;42.700;23.316;2023-09-19T02:37:53;9.27;;;5.72;;
80957;SDS011;70419;42.700;23.316;2023-09-19T02:40:19;9.82;;;5.07;;
80957;SDS011;70419;42.700;23.316;2023-09-19T02:42:48;10.32;;;5.22;;
80957;SDS011;70419;42.700;23.316;2023-09-19T02:45:15;8.10;;;5.07;;
80957;SDS011;70419;42.700;23.316;2023-09-19T02:47:43;14.93;;;6.05;;
80957;SDS011;70419;42.700;23.316;2023-09-19T02:50:09;12.07;;;5.88;;
80957;SDS011;70419;42.700;23.316;2023-09-19T02:52:36;9.77;;;5.85;;
80957;SDS011;70419;42.700;23.316;2023-09-19T02:55:02;7.95;;;4.70;;
80957;SDS011;70419;42.700;23.316;2023-09-19T02:57:31;10.32;;;5.72;;
80957;SDS011;70419;42.700;23.316;2023-09-19T02:59:58;8.07;;;4.85;;
80957;SDS011;70419;42.700;23.316;2023-09-19T03:02:26;10.40;;;5.30;;
80957;SDS011;70419;42.700;23.316;2023-09-19T03:04:53;9.27;;;5.25;;
80957;SDS011;70419;42.700;23.316;2023-09-19T03:07:19;11.38;;;5.22;;
80957;SDS011;70419;42.700;23.316;2023-09-19T03:09:45;8.32;;;5.53;;
80957;SDS011;70419;42.700;23.316;2023-09-19T03:12:11;12.10;;;5.68;;
80957;SDS011;70419;42.700;23.316;2023-09-19T03:14:41;10.48;;;4.78;;
80957;SDS011;70419;42.700;23.316;2023-09-19T03:17:07;9.65;;;5.72;;
80957;SDS011;70419;42.700;23.316;2023-09-19T03:19:34;10.45;;;5.75;;
80957;SDS011;70419;42.700;23.316;2023-09-19T03:22:00;8.70;;;5.35;;
80957;SDS011;70419;42.700;23.316;2023-09-19T03:24:27;9.85;;;5.53;;
80957;SDS011;70419;42.700;23.316;2023-09-19T03:26:54;11.00;;;5.65;;
80957;SDS011;70419;42.700;23.316;2023-09-19T03:29:20;10.15;;;5.72;;
80957;SDS011;70419;42.700;23.316;2023-09-19T03:31:45;10.98;;;6.10;;
80957;SDS011;70419;42.700;23.316;2023-09-19T03:34:11;10.52;;;5.60;;
80957;SDS011;70419;42.700;23.316;2023-09-19T03:36:37;9.25;;;5.38;;
80957;SDS011;70419;42.700;23.316;2023-09-19T03:39:03;11.43;;;6.40;;
80957;SDS011;70419;42.700;23.316;2023-09-19T03:41:32;9.43;;;5.75;;
80957;SDS011;70419;42.700;23.316;2023-09-19T03:44:01;13.13;;;5.90;;
80957;SDS011;70419;42.700;23.316;2023-09-19T03:46:27;9.90;;;5.13;;
80957;SDS011;70419;42.700;23.316;2023-09-19T03:48:53;11.73;;;5.10;;
80957;SDS011;70419;42.700;23.316;2023-09-19T03:51:20;9.73;;;5.75;;
80957;SDS011;70419;42.700;23.316;2023-09-19T03:53:46;10.70;;;5.47;;
80957;SDS011;70419;42.700;23.316;2023-09-19T03:56:14;12.57;;;5.70;;
80957;SDS011;70419;42.700;23.316;2023-09-19T03:58:40;11.82;;;6.60;;
80957;SDS011;70419;42.700;23.316;2023-09-19T04:01:06;11.15;;;6.10;;
80957;SDS011;70419;42.700;23.316;2023-09-19T04:03:32;12.85;;;6.88;;
80957;SDS011;70419;42.700;23.316;2023-09-19T04:06:12;11.75;;;6.13;;
80957;SDS011;70419;42.700;23.316;2023-09-19T04:08:38;10.77;;;6.25;;
80957;SDS011;70419;42.700;23.316;2023-09-19T04:11:04;15.15;;;7.05;;
80957;SDS011;70419;42.700;23.316;2023-09-19T04:13:30;9.75;;;5.90;;
80957;SDS011;70419;42.700;23.316;2023-09-19T04:15:56;10.70;;;6.30;;
80957;SDS011;70419;42.700;23.316;2023-09-19T04:18:21;13.32;;;7.15;;
80957;SDS011;70419;42.700;23.316;2023-09-19T04:20:51;11.60;;;6.72;;
80957;SDS011;70419;42.700;23.316;2023-09-19T04:23:18;11.82;;;6.47;;
80957;SDS011;70419;42.700;23.316;2023-09-19T04:25:47;12.93;;;7.00;;
80957;SDS011;70419;42.700;23.316;2023-09-19T04:28:13;13.07;;;6.22;;
80957;SDS011;70419;42.700;23.316;2023-09-19T04:30:41;10.65;;;6.32;;
80957;SDS011;70419;42.700;23.316;2023-09-19T04:33:08;14.73;;;6.50;;
80957;SDS011;70419;42.700;23.316;2023-09-19T04:35:34;13.40;;;6.15;;
80957;SDS011;70419;42.700;23.316;2023-09-19T04:38:00;14.73;;;6.55;;
80957;SDS011;70419;42.700;23.316;2023-09-19T04:40:28;11.57;;;6.20;;
80957;SDS011;70419;42.700;23.316;2023-09-19T04:42:57;11.88;;;5.47;;
80957;SDS011;70419;42.700;23.316;2023-09-19T04:45:26;15.40;;;6.38;;
80957;SDS011;70419;42.700;23.316;2023-09-19T04:47:53;9.82;;;5.30;;
80957;SDS011;70419;42.700;23.316;2023-09-19T04:50:20;9.35;;;5.40;;
80957;SDS011;70419;42.700;23.316;2023-09-19T04:52:54;11.07;;;6.95;;
80957;SDS011;70419;42.700;23.316;2023-09-19T04:55:20;10.23;;;4.80;;
80957;SDS011;70419;42.700;23.316;2023-09-19T04:57:46;12.77;;;5.50;;
80957;SDS011;70419;42.700;23.316;2023-09-19T05:00:15;21.00;;;6.20;;
80957;SDS011;70419;42.700;23.316;2023-09-19T05:02:43;8.65;;;5.75;;
80957;SDS011;70419;42.700;23.316;2023-09-19T05:05:10;14.07;;;5.68;;
80957;SDS011;70419;42.700;23.316;2023-09-19T05:07:40;10.07;;;4.97;;
80957;SDS011;70419;42.700;23.316;2023-09-19T05:10:06;11.35;;;5.07;;
80957;SDS011;70419;42.700;23.316;2023-09-19T05:12:43;10.98;;;5.90;;
80957;SDS011;70419;42.700;23.316;2023-09-19T05:15:12;9.43;;;5.60;;
80957;SDS011;70419;42.700;23.316;2023-09-19T05:17:40;10.75;;;5.40;;
80957;SDS011;70419;42.700;23.316;2023-09-19T05:20:06;13.70;;;5.78;;
80957;SDS011;70419;42.700;23.316;2023-09-19T05:22:43;9.38;;;4.85;;
80957;SDS011;70419;42.700;23.316;2023-09-19T05:25:11;14.68;;;5.32;;
80957;SDS011;70419;42.700;23.316;2023-09-19T05:27:43;10.57;;;5.80;;
80957;SDS011;70419;42.700;23.316;2023-09-19T05:30:09;10.32;;;5.85;;
80957;SDS011;70419;42.700;23.316;2023-09-19T05:32:39;11.45;;;6.07;;
80957;SDS011;70419;42.700;23.316;2023-09-19T05:35:07;12.30;;;6.22;;
80957;SDS011;70419;42.700;23.316;2023-09-19T05:37:36;11.18;;;5.72;;
80957;SDS011;70419;42.700;23.316;2023-09-19T05:40:02;10.02;;;4.53;;
80957;SDS011;70419;42.700;23.316;2023-09-19T05:42:32;11.70;;;5.18;;
80957;SDS011;70419;42.700;23.316;2023-09-19T05:44:58;9.82;;;4.63;;
80957;SDS011;70419;42.700;23.316;2023-09-19T05:47:24;13.23;;;4.53;;
80957;SDS011;70419;42.700;23.316;2023-09-19T05:49:50;10.77;;;5.20;;
80957;SDS011;70419;42.700;23.316;2023-09-19T05:52:17;8.57;;;4.75;;
80957;SDS011;70419;42.700;23.316;2023-09-19T05:54:45;11.50;;;4.68;;
80957;SDS011;70419;42.700;23.316;2023-09-19T05:57:10;9.90;;;5.03;;
80957;SDS011;70419;42.700;23.316;2023-09-19T05:59:37;13.75;;;5.15;;
80957;SDS011;70419;42.700;23.316;2023-09-19T06:02:05;9.13;;;5.15;;
80957;SDS011;70419;42.700;23.316;2023-09-19T06:04:37;8.82;;;3.88;;
80957;SDS011;70419;42.700;23.316;2023-09-19T06:07:07;7.78;;;3.50;;
80957;SDS011;70419;42.700;23.316;2023-09-19T06:09:36;8.55;;;3.92;;
80957;SDS011;70419;42.700;23.316;2023-09-19T06:12:02;7.57;;;4.00;;
80957;SDS011;70419;42.700;23.316;2023-09-19T06:14:31;12.27;;;4.10;;
80957;SDS011;70419;42.700;23.316;2023-09-19T06:16:56;5.95;;;3.65;;
80957;SDS011;70419;42.700;23.316;2023-09-19T06:19:24;7.15;;;3.72;;
80957;SDS011;70419;42.700;23.316;2023-09-19T06:21:52;6.23;;;3.70;;
80957;SDS011;70419;42.700;23.316;2023-09-19T06:24:19;9.80;;;3.50;;
80957;SDS011;70419;42.700;23.316;2023-09-19T06:26:46;8.43;;;4.00;;
80957;SDS011;70419;42.700;23.316;2023-09-19T06:29:12;11.88;;;3.58;;
80957;SDS011;70419;42.700;23.316;2023-09-19T06:31:40;7.68;;;3.70;;
80957;SDS011;70419;42.700;23.316;2023-09-19T06:34:08;9.80;;;3.53;;
80957;SDS011;70419;42.700;23.316;2023-09-19T06:36:33;8.90;;;3.90;;
80957;SDS011;70419;42.700;23.316;2023-09-19T06:38:59;9.68;;;3.90;;
80957;SDS011;70419;42.700;23.316;2023-09-19T06:41:25;10.05;;;3.88;;
80957;SDS011;70419;42.700;23.316;2023-09-19T06:43:55;6.47;;;3.67;;
80957;SDS011;70419;42.700;23.316;2023-09-19T06:46:21;9.82;;;4.90;;
80957;SDS011;70419;42.700;23.316;2023-09-19T06:48:47;13.05;;;4.18;;
80957;SDS011;70419;42.700;23.316;2023-09-19T06:51:13;12.05;;;5.30;;
80957;SDS011;70419;42.700;23.316;2023-09-19T06:53:41;11.20;;;4.07;;
80957;SDS011;70419;42.700;23.316;2023-09-19T06:56:06;8.75;;;4.32;;
80957;SDS011;70419;42.700;23.316;2023-09-19T06:58:32;9.10;;;4.15;;
80957;SDS011;70419;42.700;23.316;2023-09-19T07:00:58;8.02;;;3.88;;
80957;SDS011;70419;42.700;23.316;2023-09-19T07:03:24;8.45;;;3.60;;
80957;SDS011;70419;42.700;23.316;2023-09-19T07:05:53;8.80;;;3.60;;
80957;SDS011;70419;42.700;23.316;2023-09-19T07:08:21;10.38;;;3.25;;
80957;SDS011;70419;42.700;23.316;2023-09-19T07:10:46;10.85;;;4.38;;
80957;SDS011;70419;42.700;23.316;2023-09-19T07:13:13;11.25;;;4.18;;
80957;SDS011;70419;42.700;23.316;2023-09-19T07:15:41;8.60;;;4.43;;
80957;SDS011;70419;42.700;23.316;2023-09-19T07:18:14;10.00;;;3.70;;
80957;SDS011;70419;42.700;23.316;2023-09-19T07:20:41;9.65;;;3.30;;
80957;SDS011;70419;42.700;23.316;2023-09-19T07:23:15;7.70;;;3.78;;
80957;SDS011;70419;42.700;23.316;2023-09-19T07:25:43;7.38;;;3.67;;
80957;SDS011;70419;42.700;23.316;2023-09-19T07:28:09;8.23;;;3.85;;
80957;SDS011;70419;42.700;23.316;2023-09-19T07:30:38;11.13;;;3.83;;
80957;SDS011;70419;42.700;23.316;2023-09-19T07:33:04;10.13;;;4.53;;
80957;SDS011;70419;42.700;23.316;2023-09-19T07:35:31;10.68;;;3.88;;
80957;SDS011;70419;42.700;23.316;2023-09-19T07:37:57;12.63;;;3.45;;
80957;SDS011;70419;42.700;23.316;2023-09-19T07:40:23;10.55;;;4.35;;
80957;SDS011;70419;42.700;23.316;2023-09-19T07:42:52;8.18;;;4.05;;
80957;SDS011;70419;42.700;23.316;2023-09-19T07:45:18;12.85;;;3.80;;
80957;SDS011;70419;42.700;23.316;2023-09-19T07:47:45;8.15;;;3.60;;
80957;SDS011;70419;42.700;23.316;2023-09-19T07:50:12;11.35;;;4.55;;
80957;SDS011;70419;42.700;23.316;2023-09-19T07:52:38;8.77;;;3.95;;
80957;SDS011;70419;42.700;23.316;2023-09-19T07:55:05;10.77;;;4.00;;
80957;SDS011;70419;42.700;23.316;2023-09-19T07:57:36;9.68;;;4.72;;
80957;SDS011;70419;42.700;23.316;2023-09-19T08:00:03;11.88;;;4.18;;
80957;SDS011;70419;42.700;23.316;2023-09-19T08:02:38;9.13;;;4.15;;
80957;SDS011;70419;42.700;23.316;2023-09-19T08:05:05;7.72;;;4.05;;
80957;SDS011;70419;42.700;23.316;2023-09-19T08:07:32;12.63;;;4.82;;
80957;SDS011;70419;42.700;23.316;2023-09-19T08:09:58;7.30;;;3.92;;
80957;SDS011;70419;42.700;23.316;2023-09-19T08:12:24;10.55;;;4.35;;
80957;SDS011;70419;42.700;23.316;2023-09-19T08:14:50;10.82;;;4.22;;
80957;SDS011;70419;42.700;23.316;2023-09-19T08:17:17;11.43;;;4.60;;
80957;SDS011;70419;42.700;23.316;2023-09-19T08:19:48;8.57;;;4.50;;
80957;SDS011;70419;42.700;23.316;2023-09-19T08:22:17;11.95;;;4.55;;
80957;SDS011;70419;42.700;23.316;2023-09-19T08:24:48;8.60;;;4.45;;
80957;SDS011;70419;42.700;23.316;2023-09-19T08:27:14;6.97;;;4.32;;
80957;SDS011;70419;42.700;23.316;2023-09-19T08:32:09;9.48;;;4.28;;
80957;SDS011;70419;42.700;23.316;2023-09-19T08:34:35;10.13;;;4.68;;
80957;SDS011;70419;42.700;23.316;2023-09-19T08:37:04;11.63;;;4.35;;
80957;SDS011;70419;42.700;23.316;2023-09-19T08:39:30;11.80;;;5.05;;
80957;SDS011;70419;42.700;23.316;2023-09-19T08:41:58;8.57;;;4.13;;
80957;SDS011;70419;42.700;23.316;2023-09-19T08:44:25;12.68;;;4.35;;
80957;SDS011;70419;42.700;23.316;2023-09-19T08:47:00;9.25;;;4.80;;
80957;SDS011;70419;42.700;23.316;2023-09-19T08:49:50;6.80;;;4.22;;
80957;SDS011;70419;42.700;23.316;2023-09-19T08:52:28;9.52;;;4.88;;
80957;SDS011;70419;42.700;23.316;2023-09-19T08:55:02;12.15;;;4.95;;
80957;SDS011;70419;42.700;23.316;2023-09-19T08:57:35;11.32;;;4.57;;
80957;SDS011;70419;42.700;23.316;2023-09-19T09:00:06;9.32;;;4.57;;
80957;SDS011;70419;42.700;23.316;2023-09-19T09:02:39;7.47;;;4.22;;
80957;SDS011;70419;42.700;23.316;2023-09-19T09:05:08;9.95;;;4.95;;
80957;SDS011;70419;42.700;23.316;2023-09-19T09:07:35;14.15;;;4.63;;
80957;SDS011;70419;42.700;23.316;2023-09-19T09:10:02;11.40;;;4.37;;
80957;SDS011;70419;42.700;23.316;2023-09-19T09:12:29;7.95;;;3.65;;
80957;SDS011;70419;42.700;23.316;2023-09-19T09:14:55;9.65;;;4.30;;
80957;SDS011;70419;42.700;23.316;2023-09-19T09:17:22;10.07;;;4.80;;
80957;SDS011;70419;42.700;23.316;2023-09-19T09:19:52;9.05;;;4.53;;
80957;SDS011;70419;42.700;23.316;2023-09-19T09:22:18;7.47;;;4.97;;
80957;SDS011;70419;42.700;23.316;2023-09-19T09:24:58;14.55;;;4.65;;
80957;SDS011;70419;42.700;23.316;2023-09-19T09:27:28;9.13;;;4.47;;
80957;SDS011;70419;42.700;23.316;2023-09-19T09:29:54;12.82;;;5.38;;
80957;SDS011;70419;42.700;23.316;2023-09-19T09:34:56;11.45;;;4.88;;
80957;SDS011;70419;42.700;23.316;2023-09-19T09:37:26;7.15;;;4.15;;
80957;SDS011;70419;42.700;23.316;2023-09-19T09:42:43;8.20;;;4.35;;
80957;SDS011;70419;42.700;23.316;2023-09-19T09:47:44;9.50;;;4.57;;
80957;SDS011;70419;42.700;23.316;2023-09-19T09:50:26;19.58;;;5.57;;
80957;SDS011;70419;42.700;23.316;2023-09-19T09:55:59;9.88;;;4.63;;
80957;SDS011;70419;42.700;23.316;2023-09-19T09:58:35;11.15;;;4.35;;
80957;SDS011;70419;42.700;23.316;2023-09-19T10:01:46;12.18;;;5.63;;
80957;SDS011;70419;42.700;23.316;2023-09-19T10:04:26;10.63;;;4.80;;
80957;SDS011;70419;42.700;23.316;2023-09-19T10:07:23;9.38;;;4.85;;
80957;SDS011;70419;42.700;23.316;2023-09-19T10:09:51;10.10;;;4.53;;
80957;SDS011;70419;42.700;23.316;2023-09-19T10:12:17;12.65;;;5.25;;
80957;SDS011;70419;42.700;23.316;2023-09-19T10:14:48;10.48;;;4.80;;
80957;SDS011;70419;42.700;23.316;2023-09-19T10:17:15;8.75;;;4.65;;
80957;SDS011;70419;42.700;23.316;2023-09-19T10:19:56;14.48;;;5.10;;
80957;SDS011;70419;42.700;23.316;2023-09-19T10:22:26;16.30;;;5.28;;
80957;SDS011;70419;42.700;23.316;2023-09-19T10:24:56;18.75;;;5.70;;
80957;SDS011;70419;42.700;23.316;2023-09-19T10:27:27;9.85;;;5.28;;
80957;SDS011;70419;42.700;23.316;2023-09-19T10:30:02;10.20;;;4.22;;
80957;SDS011;70419;42.700;23.316;2023-09-19T10:32:32;11.38;;;5.20;;
80957;SDS011;70419;42.700;23.316;2023-09-19T10:35:02;9.00;;;4.18;;
80957;SDS011;70419;42.700;23.316;2023-09-19T10:37:30;15.82;;;4.70;;
80957;SDS011;70419;42.700;23.316;2023-09-19T10:39:59;11.82;;;4.10;;
80957;SDS011;70419;42.700;23.316;2023-09-19T10:42:25;11.75;;;4.38;;
80957;SDS011;70419;42.700;23.316;2023-09-19T10:44:55;22.75;;;4.50;;
80957;SDS011;70419;42.700;23.316;2023-09-19T10:47:28;9.48;;;4.38;;
80957;SDS011;70419;42.700;23.316;2023-09-19T10:49:56;8.85;;;4.93;;
80957;SDS011;70419;42.700;23.316;2023-09-19T10:52:23;12.23;;;5.00;;
80957;SDS011;70419;42.700;23.316;2023-09-19T10:54:54;10.38;;;4.88;;
80957;SDS011;70419;42.700;23.316;2023-09-19T10:57:29;8.05;;;4.50;;
80957;SDS011;70419;42.700;23.316;2023-09-19T11:00:00;12.73;;;4.68;;
80957;SDS011;70419;42.700;23.316;2023-09-19T11:03:15;14.30;;;5.57;;
80957;SDS011;70419;42.700;23.316;2023-09-19T11:05:37;8.52;;;4.40;;
80957;SDS011;70419;42.700;23.316;2023-09-19T11:08:07;14.50;;;4.80;;
80957;SDS011;70419;42.700;23.316;2023-09-19T11:10:49;7.55;;;4.55;;
80957;SDS011;70419;42.700;23.316;2023-09-19T11:13:31;8.50;;;4.20;;
80957;SDS011;70419;42.700;23.316;2023-09-19T11:16:03;17.27;;;5.03;;
80957;SDS011;70419;42.700;23.316;2023-09-19T11:26:42;16.02;;;5.78;;
80957;SDS011;70419;42.700;23.316;2023-09-19T11:29:24;9.77;;;4.65;;
80957;SDS011;70419;42.700;23.316;2023-09-19T11:31:51;13.75;;;5.10;;
80957;SDS011;70419;42.700;23.316;2023-09-19T11:37:02;9.20;;;4.57;;
80957;SDS011;70419;42.700;23.316;2023-09-19T11:39:31;10.48;;;4.95;;
80957;SDS011;70419;42.700;23.316;2023-09-19T11:41:58;13.95;;;4.80;;
80957;SDS011;70419;42.700;23.316;2023-09-19T11:46:52;9.85;;;4.53;;
80957;SDS011;70419;42.700;23.316;2023-09-19T11:49:29;10.05;;;4.10;;
80957;SDS011;70419;42.700;23.316;2023-09-19T11:51:58;9.30;;;4.53;;
80957;SDS011;70419;42.700;23.316;2023-09-19T11:54:35;10.00;;;6.35;;
80957;SDS011;70419;42.700;23.316;2023-09-19T11:57:07;10.27;;;4.90;;
80957;SDS011;70419;42.700;23.316;2023-09-19T11:59:37;14.65;;;7.18;;
80957;SDS011;70419;42.700;23.316;2023-09-19T12:02:04;10.65;;;5.28;;
80957;SDS011;70419;42.700;23.316;2023-09-19T12:07:07;8.32;;;4.28;;
80957;SDS011;70419;42.700;23.316;2023-09-19T12:09:41;11.88;;;4.50;;
80957;SDS011;70419;42.700;23.316;2023-09-19T12:12:26;9.82;;;4.63;;
80957;SDS011;70419;42.700;23.316;2023-09-19T12:14:52;10.90;;;4.53;;
80957;SDS011;70419;42.700;23.316;2023-09-19T12:17:19;17.73;;;6.07;;
80957;SDS011;70419;42.700;23.316;2023-09-19T12:19:49;7.53;;;5.72;;
80957;SDS011;70419;42.700;23.316;2023-09-19T12:22:19;10.27;;;4.97;;
80957;SDS011;70419;42.700;23.316;2023-09-19T12:24:48;7.47;;;4.50;;
80957;SDS011;70419;42.700;23.316;2023-09-19T12:27:15;7.85;;;5.22;;
80957;SDS011;70419;42.700;23.316;2023-09-19T12:29:49;7.43;;;4.97;;
80957;SDS011;70419;42.700;23.316;2023-09-19T12:32:15;12.60;;;5.65;;
80957;SDS011;70419;42.700;23.316;2023-09-19T12:34:52;7.63;;;5.05;;
80957;SDS011;70419;42.700;23.316;2023-09-19T12:37:19;8.15;;;4.88;;
80957;SDS011;70419;42.700;23.316;2023-09-19T12:39:52;10.90;;;5.18;;
80957;SDS011;70419;42.700;23.316;2023-09-19T12:42:23;8.27;;;5.28;;
80957;SDS011;70419;42.700;23.316;2023-09-19T12:44:57;8.85;;;4.80;;
80957;SDS011;70419;42.700;23.316;2023-09-19T12:47:26;11.80;;;5.63;;
80957;SDS011;70419;42.700;23.316;2023-09-19T12:50:16;8.20;;;4.68;;
80957;SDS011;70419;42.700;23.316;2023-09-19T12:52:52;12.18;;;6.30;;
80957;SDS011;70419;42.700;23.316;2023-09-19T12:55:28;9.32;;;5.72;;
80957;SDS011;70419;42.700;23.316;2023-09-19T12:57:58;16.73;;;5.68;;
80957;SDS011;70419;42.700;23.316;2023-09-19T13:00:38;9.15;;;5.22;;
80957;SDS011;70419;42.700;23.316;2023-09-19T13:03:12;6.82;;;5.30;;
80957;SDS011;70419;42.700;23.316;2023-09-19T13:05:52;9.75;;;5.40;;
80957;SDS011;70419;42.700;23.316;2023-09-19T13:08:35;8.43;;;5.82;;
80957;SDS011;70419;42.700;23.316;2023-09-19T13:11:16;12.70;;;6.20;;
80957;SDS011;70419;42.700;23.316;2023-09-19T13:13:51;7.43;;;4.85;;
80957;SDS011;70419;42.700;23.316;2023-09-19T13:19:51;9.10;;;5.00;;
80957;SDS011;70419;42.700;23.316;2023-09-19T13:22:42;6.93;;;4.90;;
80957;SDS011;70419;42.700;23.316;2023-09-19T13:25:19;9.05;;;5.32;;
80957;SDS011;70419;42.700;23.316;2023-09-19T13:30:17;6.50;;;4.57;;
80957;SDS011;70419;42.700;23.316;2023-09-19T13:32:44;12.35;;;5.25;;
80957;SDS011;70419;42.700;23.316;2023-09-19T13:35:13;8.60;;;5.53;;
80957;SDS011;70419;42.700;23.316;2023-09-19T13:37:43;8.70;;;5.50;;
80957;SDS011;70419;42.700;23.316;2023-09-19T13:40:15;15.40;;;4.78;;
80957;SDS011;70419;42.700;23.316;2023-09-19T13:42:41;15.23;;;4.90;;
80957;SDS011;70419;42.700;23.316;2023-09-19T13:45:07;9.47;;;5.00;;
80957;SDS011;70419;42.700;23.316;2023-09-19T13:47:39;9.30;;;5.97;;
80957;SDS011;70419;42.700;23.316;2023-09-19T13:50:05;9.65;;;4.93;;
80957;SDS011;70419;42.700;23.316;2023-09-19T13:52:32;12.63;;;5.70;;
80957;SDS011;70419;42.700;23.316;2023-09-19T13:54:58;17.08;;;6.78;;
80957;SDS011;70419;42.700;23.316;2023-09-19T13:57:25;11.85;;;5.05;;
80957;SDS011;70419;42.700;23.316;2023-09-19T13:59:51;11.77;;;5.17;;
80957;SDS011;70419;42.700;23.316;2023-09-19T14:04:48;9.00;;;5.15;;
80957;SDS011;70419;42.700;23.316;2023-09-19T14:07:17;11.68;;;5.43;;
80957;SDS011;70419;42.700;23.316;2023-09-19T14:09:46;8.88;;;4.50;;
80957;SDS011;70419;42.700;23.316;2023-09-19T14:14:39;12.38;;;5.30;;
80957;SDS011;70419;42.700;23.316;2023-09-19T14:17:05;8.00;;;4.68;;
80957;SDS011;70419;42.700;23.316;2023-09-19T14:19:32;16.40;;;5.20;;
80957;SDS011;70419;42.700;23.316;2023-09-19T14:21:58;11.25;;;4.90;;
80957;SDS011;70419;42.700;23.316;2023-09-19T14:24:27;8.57;;;4.72;;
80957;SDS011;70419;42.700;23.316;2023-09-19T14:26:52;6.75;;;4.28;;
80957;SDS011;70419;42.700;23.316;2023-09-19T14:29:19;14.90;;;5.22;;
80957;SDS011;70419;42.700;23.316;2023-09-19T14:31:45;9.02;;;5.10;;
80957;SDS011;70419;42.700;23.316;2023-09-19T14:34:11;11.18;;;5.15;;
80957;SDS011;70419;42.700;23.316;2023-09-19T14:36:37;8.43;;;5.28;;
80957;SDS011;70419;42.700;23.316;2023-09-19T14:39:04;9.60;;;5.13;;
80957;SDS011;70419;42.700;23.316;2023-09-19T14:41:31;10.35;;;4.90;;
80957;SDS011;70419;42.700;23.316;2023-09-19T14:43:57;9.15;;;5.50;;
80957;SDS011;70419;42.700;23.316;2023-09-19T14:46:23;18.08;;;5.95;;
80957;SDS011;70419;42.700;23.316;2023-09-19T14:48:51;8.80;;;5.38;;
80957;SDS011;70419;42.700;23.316;2023-09-19T14:51:17;7.55;;;5.00;;
80957;SDS011;70419;42.700;23.316;2023-09-19T14:53:44;8.95;;;5.10;;
80957;SDS011;70419;42.700;23.316;2023-09-19T14:56:11;9.85;;;5.35;;
80957;SDS011;70419;42.700;23.316;2023-09-19T14:58:38;9.85;;;5.45;;
80957;SDS011;70419;42.700;23.316;2023-09-19T15:01:05;13.20;;;6.15;;
80957;SDS011;70419;42.700;23.316;2023-09-19T15:03:32;10.70;;;5.63;;
80957;SDS011;70419;42.700;23.316;2023-09-19T15:06:00;11.15;;;6.10;;
80957;SDS011;70419;42.700;23.316;2023-09-19T15:08:28;8.65;;;5.60;;
80957;SDS011;70419;42.700;23.316;2023-09-19T15:10:53;10.50;;;5.88;;
80957;SDS011;70419;42.700;23.316;2023-09-19T15:13:20;13.90;;;6.15;;
80957;SDS011;70419;42.700;23.316;2023-09-19T15:15:46;13.00;;;5.60;;
80957;SDS011;70419;42.700;23.316;2023-09-19T15:18:17;11.32;;;4.72;;
80957;SDS011;70419;42.700;23.316;2023-09-19T15:20:43;11.40;;;5.90;;
80957;SDS011;70419;42.700;23.316;2023-09-19T15:23:11;11.27;;;6.45;;
80957;SDS011;70419;42.700;23.316;2023-09-19T15:25:38;7.75;;;5.15;;
80957;SDS011;70419;42.700;23.316;2023-09-19T15:28:05;9.90;;;5.22;;
80957;SDS011;70419;42.700;23.316;2023-09-19T15:30:39;15.00;;;5.88;;
80957;SDS011;70419;42.700;23.316;2023-09-19T15:33:04;11.63;;;6.10;;
80957;SDS011;70419;42.700;23.316;2023-09-19T15:35:30;10.63;;;6.10;;
80957;SDS011;70419;42.700;23.316;2023-09-19T15:37:56;11.95;;;5.78;;
80957;SDS011;70419;42.700;23.316;2023-09-19T15:40:26;10.13;;;5.50;;
80957;SDS011;70419;42.700;23.316;2023-09-19T15:42:52;12.15;;;5.75;;
80957;SDS011;70419;42.700;23.316;2023-09-19T15:45:21;11.75;;;5.63;;
80957;SDS011;70419;42.700;23.316;2023-09-19T15:47:50;15.63;;;5.78;;